createdAt,value
2023-05-04T00:03:46.995Z,100.00
2023-05-04T00:08:50.758Z,100.00
2023-05-04T00:13:54.925Z,100.00
2023-05-04T00:18:59.173Z,100.00
2023-05-04T00:24:03.226Z,100.00
2023-05-04T00:29:05.495Z,100.00
2023-05-04T00:34:09.657Z,100.00
2023-05-04T00:39:11.951Z,100.00
2023-05-04T00:44:16.133Z,100.00
2023-05-04T00:49:20.274Z,100.00
2023-05-04T00:54:24.446Z,100.00
2023-05-04T00:59:28.590Z,100.00
2023-05-04T01:04:32.767Z,100.00
2023-05-04T01:09:36.938Z,100.00
2023-05-04T01:14:41.094Z,100.00
2023-05-04T01:19:45.277Z,100.00
2023-05-04T01:24:49.408Z,100.00
2023-05-04T01:29:53.569Z,100.00
2023-05-04T01:34:57.728Z,100.00
2023-05-04T01:40:02.114Z,100.00
2023-05-04T01:45:06.087Z,100.00
2023-05-04T01:50:10.210Z,100.00
2023-05-04T01:55:14.418Z,100.00
2023-05-04T02:00:18.563Z,100.00
2023-05-04T02:05:22.728Z,100.00
2023-05-04T02:10:26.916Z,100.00
2023-05-04T02:15:31.044Z,100.00
2023-05-04T02:20:35.258Z,100.00
2023-05-04T02:25:37.468Z,100.00
2023-05-04T02:30:41.653Z,100.00
2023-05-04T02:35:43.930Z,100.00
2023-05-04T02:40:48.080Z,100.00
2023-05-04T02:45:52.263Z,100.00
2023-05-04T02:50:56.390Z,100.00
2023-05-04T02:56:00.614Z,100.00
2023-05-04T03:01:04.800Z,100.00
2023-05-04T03:06:08.915Z,100.00
2023-05-04T03:11:13.066Z,100.00
2023-05-04T03:16:17.254Z,100.00
2023-05-04T03:21:21.449Z,100.00
2023-05-04T03:26:25.583Z,100.00
2023-05-04T03:31:29.778Z,100.00
2023-05-04T03:36:33.922Z,100.00
2023-05-04T03:41:38.048Z,100.00
2023-05-04T03:46:42.210Z,100.00
2023-05-04T03:51:46.359Z,100.00
2023-05-04T03:56:50.536Z,100.00
2023-05-04T04:01:54.737Z,100.00
2023-05-04T04:06:58.886Z,100.00
2023-05-04T04:12:03.111Z,100.00
2023-05-04T04:17:07.251Z,100.00
2023-05-04T04:22:09.471Z,100.00
2023-05-04T04:27:13.660Z,100.00
2023-05-04T04:32:15.907Z,100.00
2023-05-04T04:37:20.074Z,100.00
2023-05-04T04:42:24.238Z,100.00
2023-05-04T04:47:28.457Z,100.00
2023-05-04T04:52:32.586Z,100.00
2023-05-04T04:57:36.716Z,100.00
2023-05-04T05:02:40.917Z,100.00
2023-05-04T05:07:45.070Z,100.00
2023-05-04T05:12:49.250Z,100.00
2023-05-04T05:17:51.537Z,100.00
2023-05-04T05:22:55.669Z,100.00
2023-05-04T05:27:59.843Z,100.00
2023-05-04T05:33:04.070Z,100.00
2023-05-04T05:38:08.144Z,100.00
2023-05-04T05:43:12.288Z,100.00
2023-05-04T05:48:16.563Z,100.00
2023-05-04T05:53:20.629Z,100.00
2023-05-04T05:58:24.824Z,100.00
2023-05-04T06:03:29.077Z,100.00
2023-05-04T06:08:33.158Z,100.00
2023-05-04T06:13:37.252Z,100.00
2023-05-04T06:18:39.556Z,100.00
2023-05-04T06:23:43.744Z,100.00
2023-05-04T06:28:47.888Z,100.00
2023-05-04T06:33:52.083Z,100.00
2023-05-04T06:38:56.201Z,100.00
2023-05-04T06:44:00.358Z,100.00
2023-05-04T06:49:04.534Z,100.00
2023-05-04T06:54:08.678Z,100.00
2023-05-04T06:59:12.841Z,100.00
2023-05-04T07:04:16.987Z,100.00
2023-05-04T07:09:21.194Z,100.00
2023-05-04T07:14:25.325Z,100.00
2023-05-04T07:19:29.472Z,100.00
2023-05-04T07:24:33.670Z,100.00
2023-05-04T07:29:37.801Z,100.00
2023-05-04T07:34:46.275Z,100.00
2023-05-04T07:39:46.116Z,100.00
2023-05-04T07:44:50.307Z,100.00
2023-05-04T07:49:54.423Z,100.00
2023-05-04T07:54:58.624Z,100.00
2023-05-04T08:00:03.151Z,100.00
2023-05-04T08:05:05.023Z,100.00
2023-05-04T08:10:09.241Z,100.00
2023-05-04T08:15:11.479Z,100.00
2023-05-04T08:20:15.621Z,100.00
2023-05-04T08:25:19.761Z,100.00
2023-05-04T08:30:23.973Z,100.00
2023-05-04T08:35:28.145Z,100.00
2023-05-04T08:40:32.261Z,100.00
2023-05-04T08:45:36.459Z,100.00
2023-05-04T08:50:40.578Z,100.00
2023-05-04T08:55:44.759Z,100.00
2023-05-04T09:00:48.952Z,100.00
2023-05-04T09:05:53.046Z,100.00
2023-05-04T09:10:57.216Z,100.00
2023-05-04T09:16:01.484Z,100.00
2023-05-04T09:21:05.534Z,100.00
2023-05-04T09:26:09.720Z,100.00
2023-05-04T09:31:13.905Z,100.00
2023-05-04T09:36:18.030Z,100.00
2023-05-04T09:41:22.170Z,100.00
2023-05-04T09:46:26.371Z,100.00
2023-05-04T09:51:30.500Z,100.00
2023-05-04T09:56:34.664Z,100.00
2023-05-04T10:01:36.987Z,100.00
2023-05-04T10:06:41.074Z,100.00
2023-05-04T10:11:43.364Z,100.00
2023-05-04T10:16:47.492Z,100.00
2023-05-04T10:21:51.679Z,100.00
2023-05-04T10:26:55.858Z,100.00
2023-05-04T10:32:00.128Z,100.00
2023-05-04T10:37:04.180Z,100.00
2023-05-04T10:42:08.301Z,100.00
2023-05-04T10:47:12.480Z,100.00
2023-05-04T10:52:16.613Z,100.00
2023-05-04T10:57:20.778Z,100.00
2023-05-04T11:02:24.980Z,100.00
2023-05-04T11:07:29.106Z,100.00
2023-05-04T11:12:33.311Z,100.00
2023-05-04T11:17:37.425Z,100.00
2023-05-04T11:22:41.558Z,100.00
2023-05-04T11:27:45.750Z,100.00
2023-05-04T11:32:49.947Z,100.00
2023-05-04T11:37:54.046Z,100.00
2023-05-04T11:42:58.234Z,100.00
2023-05-04T11:48:02.440Z,100.00
2023-05-04T11:53:06.529Z,98.78
2023-05-04T11:58:08.847Z,100.00
2023-05-04T12:03:13.215Z,96.08
2023-05-04T12:08:15.247Z,94.55
2023-05-04T12:13:19.536Z,97.33
2023-05-04T12:18:23.574Z,94.32
2023-05-04T12:23:27.703Z,94.27
2023-05-04T12:28:31.888Z,91.09
2023-05-04T12:33:36.091Z,92.79
2023-05-04T12:38:40.219Z,92.21
2023-05-04T12:43:44.376Z,93.92
2023-05-04T12:48:48.503Z,87.95
2023-05-04T12:53:52.669Z,90.66
2023-05-04T12:58:56.860Z,87.29
2023-05-04T13:04:00.974Z,79.00
2023-05-04T13:09:05.137Z,76.72
2023-05-04T13:14:09.335Z,78.50
2023-05-04T13:19:13.454Z,76.62
2023-05-04T13:24:17.636Z,85.17
2023-05-04T13:29:21.761Z,70.54
2023-05-04T13:34:25.961Z,75.86
2023-05-04T13:39:30.120Z,68.24
2023-05-04T13:44:34.258Z,69.09
2023-05-04T13:49:38.394Z,72.04
2023-05-04T13:54:40.667Z,70.01
2023-05-04T13:59:58.393Z,64.87
2023-05-04T14:04:47.102Z,63.14
2023-05-04T14:09:51.307Z,62.15
2023-05-04T14:14:53.540Z,69.31
2023-05-04T14:19:57.710Z,56.55
2023-05-04T14:25:01.850Z,64.42
2023-05-04T14:30:06.100Z,67.04
2023-05-04T14:35:10.506Z,58.58
2023-05-04T14:40:14.454Z,58.74
2023-05-04T14:45:18.518Z,65.60
2023-05-04T14:50:22.660Z,55.60
2023-05-04T14:55:26.852Z,55.18
2023-05-04T15:00:30.975Z,52.90
2023-05-04T15:05:35.143Z,54.38
2023-05-04T15:10:39.319Z,50.74
2023-05-04T15:15:43.524Z,54.99
2023-05-04T15:20:47.643Z,56.81
2023-05-04T15:25:51.780Z,56.41
2023-05-04T15:30:55.918Z,62.58
2023-05-04T15:36:00.122Z,59.54
2023-05-04T15:41:04.243Z,56.74
2023-05-04T15:46:08.355Z,56.89
2023-05-04T15:51:12.584Z,55.34
2023-05-04T15:56:16.692Z,56.92
2023-05-04T16:01:18.995Z,56.09
2023-05-04T16:06:23.840Z,55.48
2023-05-04T16:11:27.319Z,62.84
2023-05-04T16:16:29.576Z,57.76
2023-05-04T16:21:33.696Z,58.15
2023-05-04T16:26:37.900Z,58.81
2023-05-04T16:31:42.070Z,63.14
2023-05-04T16:36:46.219Z,62.05
2023-05-04T16:41:50.372Z,60.59
2023-05-04T16:46:54.549Z,60.07
2023-05-04T16:51:58.690Z,59.39
2023-05-04T16:57:02.852Z,58.91
2023-05-04T17:02:07.141Z,67.43
2023-05-04T17:07:11.235Z,71.52
2023-05-04T17:12:15.295Z,72.85
2023-05-04T17:17:19.483Z,74.50
2023-05-04T17:22:23.673Z,75.06
2023-05-04T17:27:27.818Z,78.82
2023-05-04T17:32:32.041Z,83.15
2023-05-04T17:37:36.125Z,85.09
2023-05-04T17:42:40.293Z,82.67
2023-05-04T17:48:03.738Z,87.80
2023-05-04T17:52:48.585Z,90.66
2023-05-04T17:57:52.734Z,94.56
2023-05-04T18:02:55.137Z,92.40
2023-05-04T18:07:59.186Z,93.15
2023-05-04T18:13:01.492Z,94.06
2023-05-04T18:18:05.665Z,92.13
2023-05-04T18:23:09.737Z,95.22
2023-05-04T18:28:13.916Z,96.43
2023-05-04T18:33:18.107Z,94.43
2023-05-04T18:38:22.228Z,95.86
2023-05-04T18:43:26.390Z,100.00
2023-05-04T18:48:30.712Z,100.00
2023-05-04T18:53:34.697Z,100.00
2023-05-04T18:58:38.916Z,100.00
2023-05-04T19:08:47.314Z,100.00
2023-05-04T19:13:51.389Z,100.00
2023-05-04T19:18:55.522Z,100.00
2023-05-04T19:23:59.820Z,100.00
2023-05-04T19:29:03.837Z,100.00
2023-05-04T19:34:07.981Z,100.00
2023-05-04T19:39:12.154Z,100.00
2023-05-04T19:44:16.325Z,100.00
2023-05-04T19:49:20.481Z,100.00
2023-05-04T19:54:24.649Z,100.00
2023-05-04T19:59:28.786Z,100.00
2023-05-04T20:04:31.062Z,100.00
2023-05-04T20:09:35.218Z,100.00
2023-05-04T20:14:39.343Z,100.00
2023-05-04T20:19:41.636Z,100.00
2023-05-04T20:24:45.839Z,100.00
2023-05-04T20:29:49.942Z,100.00
2023-05-04T20:34:54.142Z,100.00
2023-05-04T20:39:58.340Z,100.00
2023-05-04T20:45:02.465Z,100.00
2023-05-04T20:50:06.852Z,100.00
2023-05-04T20:55:10.740Z,100.00
2023-05-04T21:00:14.928Z,100.00
2023-05-04T21:05:19.084Z,100.00
2023-05-04T21:10:23.253Z,100.00
2023-05-04T21:15:27.403Z,100.00
2023-05-04T21:20:31.579Z,100.00
2023-05-04T21:25:35.748Z,100.00
2023-05-04T21:30:39.859Z,100.00
2023-05-04T21:35:44.039Z,100.00
2023-05-04T21:40:48.202Z,100.00
2023-05-04T21:45:52.342Z,100.00
2023-05-04T21:50:56.537Z,100.00
2023-05-04T21:56:00.690Z,100.00
2023-05-04T22:01:04.830Z,100.00
2023-05-04T22:06:07.077Z,100.00
2023-05-04T22:11:11.276Z,100.00
2023-05-04T22:16:13.560Z,100.00
2023-05-04T22:21:17.671Z,100.00
2023-05-04T22:26:21.836Z,100.00
2023-05-04T22:31:26.070Z,100.00
2023-05-04T22:36:30.158Z,100.00
2023-05-04T22:41:34.342Z,100.00
2023-05-04T22:46:38.524Z,100.00
2023-05-04T22:51:42.678Z,100.00
2023-05-04T22:56:46.811Z,100.00
2023-05-04T23:01:50.972Z,100.00
2023-05-04T23:06:55.117Z,100.00
2023-05-04T23:11:59.257Z,100.00
2023-05-04T23:17:03.454Z,100.00
2023-05-04T23:22:07.596Z,100.00
2023-05-04T23:27:11.782Z,100.00
2023-05-04T23:32:15.931Z,100.00
2023-05-04T23:37:20.091Z,100.00
2023-05-04T23:42:24.220Z,100.00
2023-05-04T23:47:28.416Z,100.00
2023-05-04T23:57:34.841Z,100.00
